• Join FlightAware (Why Join?)
  • Login
  • US Flag 
04:05AM EDT


 

Airport Tracker/Info


-or-


 

Live Flight TrackerFlight Track Log ✈ DAL268 ✈ 07-Oct-2013 ✈ KJFK - LLBG / TLV

Flight Track Log - Related Links

Times and Time Zones

All times are in EDT time to prevent confusion due to time zone crossing. See the DAL268 flight status page for this flight to view local times or setup timezone preferences in your user account.

Time Position Orientation Groundspeed Altitude Reporting Facility
EDT Latitude Longitude Course Direction KTS MPH feet Rate Location/Type
09:44PM 40.6450 -73.7680 180° South 74 85  Level FlightAware
09:44PM 40.6360 -73.7750 211° Southwest 145 167 420 Level FlightAware
09:45PM 40.6200 -73.7860 208° Southwest 183 211 300 1,200 Climbing FlightAware
09:45PM 40.6040 -73.7980 210° Southwest 187 215 900 1,620 Climbing FlightAware
09:45PM 40.5910 -73.8040 199° South 201 231 1,300 1,200 Climbing FlightAware
09:46PM 40.5670 -73.7870 152° Southeast 226 260 1,800 1,020 Climbing FlightAware
09:46PM 40.5600 -73.7730 123° Southeast 240 276 2,000 1,080 Climbing FlightAware
09:46PM 40.5470 -73.7410 118° Southeast 259 298 2,500 900 Climbing FlightAware
09:47PM 40.5340 -73.7120 121° Southeast 282 325 2,700 720 Climbing FlightAware
09:47PM 40.5260 -73.6940 120° Southeast 291 335 2,900 1,500 Climbing FlightAware
09:47PM 40.5140 -73.6630 117° Southeast 300 345 3,500 1,620 Climbing FlightAware
09:48PM 40.4990 -73.6240 117° Southeast 319 367 4,100 1,680 Climbing FlightAware
09:48PM 40.4860 -73.5870 115° Southeast 317 365 4,800 1,260 Climbing FlightAware
09:48PM 40.4740 -73.5470 112° Southeast 317 365 5,000 420 Climbing FlightAware
09:48PM 40.4730 -73.5380 98° East 320 368 5,000  Level FlightAware
09:49PM 40.4720 -73.5220 95° East 324 373 5,000  Level FlightAware
09:49PM 40.4770 -73.4770 82° East 331 381 5,000 420 Level FlightAware
09:49PM 40.4850 -73.4400 74° East 332 382 5,300 1,680 Climbing FlightAware
09:50PM 40.4910 -73.4020 78° East 334 384 6,100 2,160 Climbing FlightAware
09:50PM 40.5000 -73.3520 77° East 344 396 6,900 2,040 Climbing FlightAware
09:50PM 40.5070 -73.3100 78° East 349 402 7,700 2,040 Climbing FlightAware
09:51PM 40.5140 -73.2710 77° East 358 412 8,200 2,100 Climbing FlightAware
09:51PM 40.5230 -73.2190 77° East 361 415 9,200 2,400 Climbing FlightAware
09:51PM 40.5310 -73.1760 76° East 363 418 10,000 2,220 Climbing FlightAware
09:52PM 40.5450 -73.0980 77° East 369 425 11,300 1,620 Climbing FlightAware
09:53PM 40.5600 -73.0290 74° East 391 450 11,900 1,140 Climbing FlightAware
09:53PM 40.5710 -72.9821 73° East 399 459 12,300 1,080 Climbing FlightAware ADS-B (KSNC)
09:53PM 40.5911 -72.9043 71° East 434 499 12,900 1,080 Climbing FlightAware ADS-B (KSNC)
09:54PM 40.6129 -72.8196 71° East 457 526 13,500 1,080 Climbing FlightAware ADS-B (KSNC)
09:54PM 40.6357 -72.7306 71° East 478 550 14,100 1,080 Climbing FlightAware ADS-B (KSNC)
09:55PM 40.6564 -72.6492 71° East 495 570 14,700 1,260 Climbing FlightAware ADS-B (KSNC)
09:55PM 40.6792 -72.5594 71° East 507 583 15,400 1,620 Climbing FlightAware ADS-B (KSNC)
09:56PM 40.7080 -72.4445 72° East 512 589 16,600 1,860 Climbing FlightAware ADS-B (KSNC)
09:57PM 40.7320 -72.3500 71° East 511 588 17,700 1,980 Climbing FlightAware
09:57PM 40.7505 -72.2759 72° East 514 592 18,800 1,800 Climbing FlightAware ADS-B (KSNC)
09:58PM 40.7800 -72.1530 72° East 518 596 19,700 1,500 Climbing FlightAware
09:58PM 40.8090 -72.0380 72° East 524 603 20,700 1,380 Climbing FlightAware
09:59PM 40.8370 -71.9210 72° East 530 610 21,500 1,380 Climbing FlightAware
10:00PM 40.8630 -71.8190 71° East 535 616 22,300 1,380 Climbing FlightAware
10:00PM 40.8890 -71.7100 72° East 540 621 23,100 1,320 Climbing FlightAware
10:01PM 40.9170 -71.5960 72° East 542 624 23,900 1,200 Climbing FlightAware
10:01PM 40.9410 -71.4910 73° East 548 631 24,500 1,260 Climbing FlightAware
10:02PM 40.9700 -71.3740 72° East 547 629 25,400 1,200 Climbing FlightAware
10:03PM 40.9960 -71.2650 72° East 550 633 26,000 1,200 Climbing FlightAware
10:03PM 41.0190 -71.1690 72° East 546 628 26,800 1,500 Climbing FlightAware
10:04PM 41.0490 -71.0390 73° East 541 623 27,800 1,440 Climbing FlightAware
10:04PM 41.0760 -70.9250 73° East 538 619 28,600 1,020 Climbing FlightAware
10:05PM 41.1000 -70.8210 73° East 543 625 29,000 720 Climbing FlightAware
10:05PM 41.1270 -70.7050 73° East 547 629 29,500 900 Climbing FlightAware
10:06PM 41.1520 -70.5990 73° East 547 629 30,100 1,080 Climbing FlightAware
10:07PM 41.1780 -70.4840 73° East 544 626 30,800 720 Climbing FlightAware
10:07PM 41.2040 -70.3720 73° East 549 632 31,000 120 Climbing FlightAware
10:08PM 41.2300 -70.2560 73° East 547 629 31,000  Level FlightAware
10:08PM 41.2510 -70.1660 73° East 547 629 31,000  Level FlightAware
10:09PM 41.2810 -70.0340 73° East 547 629 31,000  Level FlightAware
10:10PM 41.3040 -69.9350 73° East 547 629 31,000  Level FlightAware
10:10PM 41.3260 -69.8370 73° East 547 629 31,000  Level FlightAware
10:11PM 41.3490 -69.7380 73° East 547 629 31,000  Level FlightAware
10:12PM 41.3750 -69.6230 73° East 547 629 31,000  Level FlightAware
10:12PM 41.3990 -69.5220 72° East 547 629 31,000  Level FlightAware
10:13PM 41.4220 -69.4200 73° East 547 629 31,000  Level FlightAware
10:13PM 41.4440 -69.3210 73° East 547 629 31,000  Level FlightAware
10:14PM 41.4670 -69.2220 73° East 547 629 31,000  Level FlightAware
10:15PM 41.4900 -69.1240 73° East 547 629 31,000  Level FlightAware
10:15PM 41.5120 -69.0250 73° East 547 629 31,000  Level FlightAware
10:16PM 41.2187 -68.6853 139° Southeast 544 626 31,000  Level FlightAware ADS-B (CYQI)
10:16PM 41.5580 -68.8240 343° North 547 629 31,000  Level FlightAware
10:17PM 41.5810 -68.7250 73° East 547 629 31,000  Level FlightAware
10:18PM 41.6030 -68.6260 73° East 547 629 31,000  Level FlightAware
10:18PM 41.6270 -68.5240 72° East 547 629 31,000  Level FlightAware
10:19PM 41.1797 -68.0108 72° East 536 617 31,000  Level New York Center
10:20PM 41.1708 -67.8128 93° East 536 617 31,000  Level New York Center
10:25PM 41.1167 -67.0000 78° East 538 619 31,000  Level New York Oceanic (ODAPS)
10:26PM 41.1747 -66.6298 93° East 538 619 31,000  Level FlightAware ADS-B (CYQI)
10:27PM 41.1904 -66.5299 78° East 536 617 31,000  Level FlightAware ADS-B (CYQI)
10:27PM 41.2096 -66.4080 78° East 534 615 31,000  Level FlightAware ADS-B (CYQI)
10:28PM 41.2259 -66.2991 79° East 533 613 31,000  Level FlightAware ADS-B (CYQI)
10:29PM 41.2499 -66.1423 78° East 531 611 31,000  Level FlightAware ADS-B (CYQI)
10:29PM 41.2653 -66.0369 79° East 532 612 31,000  Level FlightAware ADS-B (CYQI)
10:30PM 41.2797 -65.9407 79° East 532 612 31,000  Level FlightAware ADS-B (CYQI)
10:30PM 41.2939 -65.8447 78° East 532 612 31,000  Level FlightAware ADS-B (CYQI)
10:31PM 41.3094 -65.7419 79° East 532 612 31,000  Level FlightAware ADS-B (CYQI)
10:31PM 41.3180 -65.6760 80° East 532 612 31,000  Level FlightAware
10:31PM 41.3294 -65.6043 78° East 531 611 31,000  Level FlightAware ADS-B (CYQI)
10:32PM 41.3491 -65.4667 79° East 530 610 31,000  Level FlightAware ADS-B (CYQI)
10:33PM 47.3600 -64.5710 North 531 611 31,000  Level FlightAware
10:33PM 47.4810 -64.3950 44° Northeast 31,000  Level FlightAware
10:34PM 47.3870 -64.3560 164° South 529 609 31,000  Level FlightAware
10:34PM 41.4040 -65.0830 185° South 529 609 31,000  Level FlightAware
10:35PM 41.4179 -64.9842 79° East 529 609 31,000  Level FlightAware ADS-B (CYQI)
10:36PM 41.4413 -64.8146 79° East 530 610 31,000  Level FlightAware ADS-B (CYQI)
10:36PM 41.4500 -64.7333 80° East 532 612 31,000  Level New York Oceanic (ODAPS)
10:37PM 41.4650 -64.6410 80° East 531 611 31,000  Level FlightAware
10:37PM 41.4850 -64.4970 79° East 530 610 31,000  Level FlightAware
10:37PM 41.4851 -64.4935 89° East 530 610 31,000  Level FlightAware ADS-B (CYQI)
10:38PM 41.4990 -64.3900 80° East 531 611 31,000  Level FlightAware
10:38PM 41.5160 -64.2680 79° East 532 612 31,000  Level FlightAware
10:39PM 41.5330 -64.1380 80° East 532 612 31,000  Level FlightAware
10:40PM 41.5470 -64.0280 80° East 532 612 31,000  Level FlightAware
10:40PM 41.5630 -63.9090 80° East 532 612 31,000  Level FlightAware
10:41PM 41.5770 -63.7960 81° East 532 612 31,000  Level FlightAware
10:42PM 41.5930 -63.6700 80° East 532 612 31,000  Level FlightAware
10:42PM 41.6100 -63.5440 80° East 532 612 31,000  Level FlightAware
10:43PM 41.6320 -63.3620 81° East 534 615 31,000  Level FlightAware
10:44PM 41.6440 -63.2680 80° East 534 615 31,000  Level FlightAware
10:44PM 41.6600 -63.1380 81° East 533 613 31,000  Level FlightAware
10:45PM 41.6760 -63.0080 81° East 533 613 31,000  Level FlightAware
10:46PM 41.6890 -62.8980 81° East 532 612 31,000  Level FlightAware
10:46PM 41.7030 -62.7850 81° East 529 609 31,000  Level FlightAware
10:47PM 41.7180 -62.6580 81° East 529 609 31,000  Level FlightAware
10:47PM 41.7310 -62.5450 81° East 528 608 31,000  Level FlightAware
10:48PM 41.7430 -62.4460 81° East 528 608 31,000  Level FlightAware
10:49PM 41.7610 -62.2860 81° East 525 604 31,000  Level FlightAware
10:50PM 41.7800 -62.1260 81° East 524 603 31,000  Level FlightAware
10:50PM 41.7920 -62.0220 81° East 524 603 31,000  Level FlightAware
10:51PM 41.8030 -61.9240 81° East 524 603 31,000  Level FlightAware
10:51PM 41.8150 -61.8250 81° East 524 603 31,000  Level FlightAware
10:52PM 41.8410 -61.5720 82° East 523 602 31,000  Level FlightAware
10:53PM 41.8530 -61.4600 82° East 523 602 31,000  Level FlightAware
10:54PM 41.8630 -61.3620 82° East 523 602 31,000  Level FlightAware
10:54PM 41.8730 -61.2630 82° East 523 602 31,000  Level FlightAware
10:55PM 41.8840 -61.1620 82° East 523 602 31,000  Level FlightAware
10:56PM 41.8940 -61.0640 82° East 523 602 31,000  Level FlightAware
10:56PM 41.9040 -60.9650 82° East 523 602 31,000  Level FlightAware
10:56PM 41.9167 -60.8167 82° East 534 615 31,000  Level New York Oceanic (ODAPS)
10:57PM 41.9150 -60.8670 81° East 523 602 31,000  Level FlightAware
10:57PM 41.9250 -60.7680 82° East 523 602 31,000  Level FlightAware
10:58PM 41.9360 -60.6670 82° East 523 602 31,000  Level FlightAware
10:59PM 41.9460 -60.5680 82° East 523 602 31,000  Level FlightAware
10:59PM 41.9560 -60.4700 82° East 523 602 31,000  Level FlightAware
11:00PM 41.9670 -60.3680 82° East 523 602 31,000  Level FlightAware
11:00PM 41.9770 -60.2700 82° East 523 602 31,000  Level FlightAware
11:01PM 41.9870 -60.1710 82° East 523 602 31,000  Level FlightAware
11:01PM 42.0000 -60.0000 79° East 518 596 31,000  Level New York Oceanic (ODAPS)
11:02PM 41.9980 -60.0700 82° East 523 602 31,000  Level FlightAware
11:02PM 42.0080 -59.9710 82° East 523 602 31,000  Level FlightAware
11:05PM 42.0690 -59.5348 79° East  Level FlightAware Approximate
11:06PM 42.0945 -59.3489 79° East  Level FlightAware Approximate
11:07PM 42.1594 -58.8642 80° East 518 596 31,000  Level FlightAware Transoceanic
11:08PM 42.1849 -58.6743 80° East 518 596 31,000  Level FlightAware Transoceanic
11:09PM 42.2100 -58.4843 80° East 518 596 31,000  Level FlightAware Transoceanic
11:10PM 42.2349 -58.2941 80° East 518 596 31,000  Level FlightAware Transoceanic
11:11PM 42.2594 -58.1038 80° East 518 596 31,000  Level FlightAware Transoceanic
11:12PM 42.2836 -57.9134 80° East 518 596 31,000  Level FlightAware Transoceanic
11:13PM 42.3075 -57.7228 80° East 518 596 31,000  Level FlightAware Transoceanic
11:14PM 42.3311 -57.5320 81° East 518 596 31,000  Level FlightAware Transoceanic
11:15PM 42.3544 -57.3412 81° East 518 596 31,000  Level FlightAware Transoceanic
11:16PM 42.3774 -57.1501 81° East 518 596 31,000  Level FlightAware Transoceanic
11:17PM 42.4000 -56.9590 81° East 518 596 31,000  Level FlightAware Transoceanic
11:17PM 42.4000 -56.9333 81° East 511 588 31,000  Level New York Oceanic (ODAPS)
11:18PM 42.4223 -56.7677 81° East 518 596 31,000  Level FlightAware Transoceanic
11:19PM 42.4443 -56.5762 81° East 518 596 31,000  Level FlightAware Transoceanic
11:20PM 42.4660 -56.3847 81° East 518 596 31,000  Level FlightAware Transoceanic
11:21PM 42.4874 -56.1930 81° East 518 596 31,000  Level FlightAware Transoceanic
11:22PM 42.5084 -56.0011 82° East 518 596 31,000  Level FlightAware Transoceanic
11:23PM 42.5289 -55.7878 82° East 511 588 31,000  Level FlightAware Transoceanic
11:24PM 42.5493 -55.5964 82° East 511 588 31,000  Level FlightAware Transoceanic
11:25PM 42.5694 -55.4049 82° East 511 588 31,000  Level FlightAware Transoceanic
11:26PM 42.5891 -55.2133 82° East 511 588 31,000  Level FlightAware Transoceanic
11:27PM 42.6085 -55.0215 82° East 511 588 31,000  Level FlightAware Transoceanic
11:28PM 42.6276 -54.8297 82° East 511 588 31,000  Level FlightAware Transoceanic
11:29PM 42.6464 -54.6377 82° East 511 588 31,000  Level FlightAware Transoceanic
11:30PM 42.6648 -54.4456 83° East 511 588 31,000  Level FlightAware Transoceanic
11:31PM 42.6830 -54.2534 83° East 511 588 31,000  Level FlightAware Transoceanic
11:32PM 42.7008 -54.0611 83° East 511 588 31,000  Level FlightAware Transoceanic
11:33PM 42.7183 -53.8686 83° East 511 588 31,000  Level FlightAware Transoceanic
11:34PM 42.7355 -53.6761 83° East 511 588 31,000  Level FlightAware Transoceanic
11:35PM 42.7523 -53.4834 83° East 511 588 31,000  Level FlightAware Transoceanic
11:36PM 42.7688 -53.2907 83° East 511 588 31,000  Level FlightAware Transoceanic
11:37PM 42.7850 -53.0978 84° East 511 588 31,000  Level FlightAware Transoceanic
11:37PM 42.8000 -53.0167 84° East 519 597 31,000  Level New York Oceanic (ODAPS)
11:38PM 42.8009 -52.9049 84° East 511 588 31,000  Level FlightAware Transoceanic
11:39PM 42.8165 -52.7118 84° East 511 588 31,000  Level FlightAware Transoceanic
11:40PM 42.8317 -52.5187 84° East 511 588 31,000  Level FlightAware Transoceanic
11:41PM 42.8466 -52.3255 84° East 511 588 31,000  Level FlightAware Transoceanic
11:42PM 42.8612 -52.1321 84° East 511 588 31,000  Level FlightAware Transoceanic
11:43PM 42.8843 -51.8877 85° East 519 597 31,000  Level FlightAware Transoceanic
11:44PM 42.8972 -51.6993 85° East 519 597 31,000  Level FlightAware Transoceanic
11:45PM 42.9099 -51.5108 85° East 519 597 31,000  Level FlightAware Transoceanic
11:46PM 42.9222 -51.3222 85° East 519 597 31,000  Level FlightAware Transoceanic
11:47PM 42.9343 -51.1335 85° East 519 597 31,000  Level FlightAware Transoceanic
11:48PM 42.9460 -50.9448 85° East 519 597 31,000  Level FlightAware Transoceanic
11:49PM 42.9574 -50.7559 85° East 519 597 31,000  Level FlightAware Transoceanic
11:50PM 42.9685 -50.5671 85° East 519 597 31,000  Level FlightAware Transoceanic
11:51PM 42.9793 -50.3781 86° East 519 597 31,000  Level FlightAware Transoceanic
11:52PM 42.9898 -50.1891 86° East 519 597 31,000  Level FlightAware Transoceanic
11:53PM 43.0000 -50.0000 87° East 519 597 31,000  Level FlightAware Transoceanic
11:53PM 43.0000 -50.0000 87° East 516 594 31,000  Level New York Oceanic (ODAPS)
11:54PM 43.0084 -49.8044 87° East 519 597 31,000  Level FlightAware Transoceanic
11:55PM 43.0164 -49.6087 87° East 519 597 31,000  Level FlightAware Transoceanic
11:56PM 43.0241 -49.4129 87° East 519 597 31,000  Level FlightAware Transoceanic
11:57PM 43.0315 -49.2171 87° East 519 597 31,000  Level FlightAware Transoceanic
11:57PM 43.0333 -49.0833 87° East 509 586 31,000  Level New York Oceanic (ODAPS)
11:58PM 43.0385 -49.0213 87° East 519 597 31,000  Level FlightAware Transoceanic
11:59PM 43.0452 -48.8254 87° East 516 594 31,000  Level FlightAware Transoceanic
12:00AM 43.0516 -48.6295 88° East 516 594 31,000  Level FlightAware Transoceanic
12:01AM 43.0576 -48.4335 88° East 516 594 31,000  Level FlightAware Transoceanic
12:02AM 43.0633 -48.2375 88° East 516 594 31,000  Level FlightAware Transoceanic
12:03AM 43.0687 -48.0415 88° East 516 594 31,000  Level FlightAware Transoceanic
12:04AM 43.0691 -47.9247 88° East 509 586 31,000  Level FlightAware Transoceanic
12:05AM 43.0739 -47.7314 88° East 509 586 31,000  Level FlightAware Transoceanic
12:06AM 43.0784 -47.5382 88° East 509 586 31,000  Level FlightAware Transoceanic
12:07AM 43.0826 -47.3449 88° East 509 586 31,000  Level FlightAware Transoceanic
12:08AM 43.0865 -47.1516 89° East 509 586 31,000  Level FlightAware Transoceanic
12:09AM 43.0900 -46.9583 89° East 509 586 31,000  Level FlightAware Transoceanic
12:10AM 43.0932 -46.7649 89° East 509 586 31,000  Level FlightAware Transoceanic
12:11AM 43.0961 -46.5715 89° East 509 586 31,000  Level FlightAware Transoceanic
12:12AM 43.0986 -46.3781 89° East 509 586 31,000  Level FlightAware Transoceanic
12:13AM 43.1008 -46.1847 89° East 509 586 31,000  Level FlightAware Transoceanic
12:14AM 43.1027 -45.9913 89° East 509 586 31,000 1,380 Level FlightAware Transoceanic
12:14AM 43.1000 -46.0500 89° East 486 559 33,000  Climbing New York Oceanic (ODAPS)
12:15AM 43.1043 -45.7979 89° East 509 586 31,000 -1,320 Descending FlightAware Transoceanic
12:16AM 43.1055 -45.6044 90° East 509 586 31,000  Level FlightAware Transoceanic
12:17AM 43.1064 -45.4110 90° East 509 586 31,000  Level FlightAware Transoceanic
12:18AM 43.1071 -45.2175 90° East 509 586 31,000 1,800 Level FlightAware Transoceanic
12:18AM 43.1167 -45.4000 90° East 488 562 33,000  Climbing New York Oceanic (ODAPS)
12:19AM 43.1073 -45.0241 90° East 509 586 31,000  Descending FlightAware Transoceanic
12:20AM 43.1055 -44.9490 90° East 486 559 33,000 960 Climbing FlightAware Transoceanic
12:21AM 43.1054 -44.7655 90° East 486 559 33,000  Level FlightAware Transoceanic
12:22AM 43.1050 -44.5820 90° East 486 559 33,000  Level FlightAware Transoceanic
12:23AM 43.1044 -44.3985 90° East 486 559 33,000  Level FlightAware Transoceanic
12:24AM 43.1134 -44.2814 91° East 488 562 33,000  Level FlightAware Transoceanic
12:25AM 43.1118 -44.0950 91° East 488 562 33,000  Level FlightAware Transoceanic
12:26AM 43.1099 -43.9086 91° East 488 562 33,000  Level FlightAware Transoceanic
12:27AM 43.1077 -43.7222 91° East 488 562 33,000  Level FlightAware Transoceanic
12:28AM 43.1051 -43.5359 91° East 488 562 33,000  Level FlightAware Transoceanic
12:29AM 43.1023 -43.3495 91° East 488 562 33,000  Level FlightAware Transoceanic
12:30AM 43.0992 -43.1632 91° East 488 562 33,000  Level FlightAware Transoceanic
12:31AM 43.0958 -42.9769 92° East 488 562 33,000  Level FlightAware Transoceanic
12:32AM 43.0921 -42.7906 92° East 488 562 33,000  Level FlightAware Transoceanic
12:33AM 43.0880 -42.6043 92° East 488 562 33,000  Level FlightAware Transoceanic
12:34AM 43.0837 -42.4180 92° East 488 562 33,000  Level FlightAware Transoceanic
12:35AM 43.0791 -42.2318 92° East 488 562 33,000  Level FlightAware Transoceanic
12:36AM 43.0741 -42.0456 92° East 488 562 33,000  Level FlightAware Transoceanic
12:37AM 43.0689 -41.8595 92° East 488 562 33,000  Level FlightAware Transoceanic
12:38AM 43.0634 -41.6734 92° East 488 562 33,000  Level FlightAware Transoceanic
12:38AM 43.0667 -41.6500 93° East 502 578 33,000  Level New York Oceanic (ODAPS)
12:39AM 43.0575 -41.4873 93° East 488 562 33,000  Level FlightAware Transoceanic
12:40AM 43.0514 -41.3012 93° East 488 562 33,000  Level FlightAware Transoceanic
12:41AM 43.0450 -41.1152 93° East 488 562 33,000  Level FlightAware Transoceanic
12:42AM 43.0382 -40.9292 93° East 488 562 33,000  Level FlightAware Transoceanic
12:43AM 43.0312 -40.7433 93° East 488 562 33,000  Level FlightAware Transoceanic
12:44AM 43.0249 -40.5496 93° East 502 578 33,000  Level FlightAware Transoceanic
12:45AM 43.0169 -40.3663 93° East 502 578 33,000  Level FlightAware Transoceanic
12:46AM 43.0086 -40.1832 94° East 502 578 33,000  Level FlightAware Transoceanic
12:47AM 43.0000 -40.0000 87° East 502 578 33,000  Level FlightAware Transoceanic
12:48AM 43.0084 -39.8044 87° East 502 578 33,000  Level FlightAware Transoceanic
12:49AM 43.0164 -39.6087 87° East 502 578 33,000  Level FlightAware Transoceanic
12:49AM 43.0000 -40.0000 87° East 506 582 33,000  Level ETMS Enhanced Traffic Management System
12:50AM 43.0241 -39.4129 87° East 502 578 33,000  Level FlightAware Transoceanic
12:51AM 43.0315 -39.2171 87° East 502 578 33,000  Level FlightAware Transoceanic
12:52AM 43.0385 -39.0213 87° East 502 578 33,000  Level FlightAware Transoceanic
12:53AM 43.0452 -38.8254 87° East 502 578 33,000  Level FlightAware Transoceanic
12:54AM 43.0516 -38.6295 88° East 502 578 33,000  Level FlightAware Transoceanic
12:55AM 43.0624 -38.2715 88° East 506 582 33,000  Level FlightAware Transoceanic
12:56AM 43.0677 -38.0792 88° East 506 582 33,000  Level FlightAware Transoceanic
12:57AM 43.0727 -37.8869 88° East 506 582 33,000  Level FlightAware Transoceanic
12:58AM 43.0774 -37.6946 88° East 506 582 33,000  Level FlightAware Transoceanic
12:59AM 43.0817 -37.5022 88° East 506 582 33,000  Level FlightAware Transoceanic
01:00AM 43.0857 -37.3098 88° East 506 582 33,000  Level FlightAware Transoceanic
01:01AM 43.0895 -37.1174 89° East 506 582 33,000  Level FlightAware Transoceanic
01:02AM 43.0928 -36.9250 89° East 506 582 33,000  Level FlightAware Transoceanic
01:03AM 43.0959 -36.7326 89° East 506 582 33,000  Level FlightAware Transoceanic
01:04AM 43.0986 -36.5401 89° East 506 582 33,000  Level FlightAware Transoceanic
01:05AM 43.1011 -36.3476 89° East 506 582 33,000  Level FlightAware Transoceanic
01:06AM 43.1032 -36.1551 89° East 506 582 33,000  Level FlightAware Transoceanic
01:07AM 43.1049 -35.9626 89° East 506 582 33,000  Level FlightAware Transoceanic
01:08AM 43.1064 -35.7701 89° East 506 582 33,000  Level FlightAware Transoceanic
01:09AM 43.1075 -35.5776 90° East 506 582 33,000  Level FlightAware Transoceanic
01:10AM 43.1083 -35.3851 90° East 506 582 33,000  Level FlightAware Transoceanic
01:11AM 43.1088 -35.1925 90° East 506 582 33,000  Level FlightAware Transoceanic
01:12AM 43.1090 -35.0000 90° East 506 582 33,000  Level FlightAware Transoceanic
01:13AM 43.1088 -34.8075 90° East 506 582 33,000  Level FlightAware Transoceanic
01:14AM 43.1083 -34.6149 90° East 506 582 33,000  Level FlightAware Transoceanic
01:15AM 43.1075 -34.4224 90° East 506 582 33,000  Level FlightAware Transoceanic
01:16AM 43.1064 -34.2299 91° East 506 582 33,000  Level FlightAware Transoceanic
01:17AM 43.1049 -34.0374 91° East 506 582 33,000  Level FlightAware Transoceanic
01:18AM 43.1032 -33.8449 91° East 506 582 33,000  Level FlightAware Transoceanic
01:19AM 43.1011 -33.6524 91° East 506 582 33,000  Level FlightAware Transoceanic
01:20AM 43.0986 -33.4599 91° East 506 582 33,000  Level FlightAware Transoceanic
01:21AM 43.0959 -33.2674 91° East 506 582 33,000  Level FlightAware Transoceanic
01:22AM 43.0928 -33.0750 91° East 506 582 33,000  Level FlightAware Transoceanic
01:23AM 43.0895 -32.8826 91° East 506 582 33,000  Level FlightAware Transoceanic
01:24AM 43.0857 -32.6902 92° East 506 582 33,000  Level FlightAware Transoceanic
01:25AM 43.0817 -32.4978 92° East 506 582 33,000  Level FlightAware Transoceanic
01:26AM 43.0774 -32.3054 92° East 506 582 33,000  Level FlightAware Transoceanic
01:27AM 43.0727 -32.1131 92° East 506 582 33,000  Level FlightAware Transoceanic
01:28AM 43.0677 -31.9208 92° East 506 582 33,000  Level FlightAware Transoceanic
01:29AM 43.0624 -31.7285 92° East 506 582 33,000  Level FlightAware Transoceanic
01:30AM 43.0567 -31.5363 92° East 506 582 33,000  Level FlightAware Transoceanic
01:31AM 43.0507 -31.3441 92° East 506 582 33,000  Level FlightAware Transoceanic
01:32AM 43.0445 -31.1520 93° East 506 582 33,000  Level FlightAware Transoceanic
01:33AM 43.0378 -30.9599 93° East 506 582 33,000  Level FlightAware Transoceanic
01:34AM 43.0309 -30.7678 93° East 506 582 33,000  Level FlightAware Transoceanic
01:35AM 43.0237 -30.5758 93° East 506 582 33,000  Level FlightAware Transoceanic
01:36AM 43.0161 -30.3838 93° East 506 582 33,000  Level FlightAware Transoceanic
01:37AM 43.0082 -30.1919 93° East 506 582 33,000  Level FlightAware Transoceanic
01:38AM 43.0000 -30.0003 93° East  Level FlightAware Approximate
01:39AM 42.9942 -29.8087 92° East  Level FlightAware Approximate
01:40AM 43.0081 -29.8091 87° East  Level FlightAware Approximate
01:41AM 43.0159 -29.6173 87° East  Level FlightAware Approximate
01:42AM 43.0234 -29.4254 87° East  Level FlightAware Approximate
01:43AM 43.0306 -29.2340 87° East  Level FlightAware Approximate
01:43AM 43.0290 -29.3000 87° East 520 598 33,000  Level FlightAware
01:44AM 43.0340 -29.1550 87° East 520 598 33,000  Level FlightAware
01:45AM 43.0380 -29.0550 87° East 520 598 33,000  Level FlightAware
01:45AM 43.0420 -28.9540 87° East 520 598 33,000  Level FlightAware
01:46AM 43.0460 -28.8540 87° East 520 598 33,000  Level FlightAware
01:46AM 43.0500 -28.7500 87° East 520 598 33,000  Level FlightAware
01:47AM 43.0540 -28.6500 87° East 520 598 33,000  Level FlightAware
01:48AM 43.0570 -28.5490 88° East 520 598 33,000  Level FlightAware
01:48AM 43.0610 -28.4480 87° East 520 598 33,000  Level FlightAware
01:49AM 43.0650 -28.3480 87° East 520 598 33,000  Level FlightAware
01:49AM 43.0690 -28.2470 87° East 520 598 33,000  Level FlightAware
01:50AM 43.0730 -28.1470 87° East 520 598 33,000  Level FlightAware
01:51AM 43.0770 -28.0460 87° East 520 598 33,000  Level FlightAware
01:51AM 43.0800 -27.9450 88° East 520 598 33,000  Level FlightAware
01:52AM 43.0840 -27.8450 87° East 520 598 33,000  Level FlightAware
01:52AM 43.0880 -27.7440 87° East 520 598 33,000  Level FlightAware
01:53AM 43.0920 -27.6430 87° East 520 598 33,000  Level FlightAware
01:56AM 43.1003 -27.1541 89° East  Level FlightAware Approximate
01:57AM 43.1030 -26.9623 89° East  Level FlightAware Approximate
01:58AM 43.1053 -26.7705 89° East  Level FlightAware Approximate
01:59AM 43.1074 -26.5787 89° East  Level FlightAware Approximate
02:00AM 43.1091 -26.3869 89° East  Level FlightAware Approximate
02:01AM 43.1105 -26.1951 89° East  Level FlightAware Approximate
02:02AM 43.1116 -26.0033 89° East  Level FlightAware Approximate
02:03AM 43.1123 -25.8114 90° East  Level FlightAware Approximate
02:04AM 43.1128 -25.6196 90° East  Level FlightAware Approximate
02:05AM 43.1129 -25.4277 90° East  Level FlightAware Approximate
02:06AM 43.1127 -25.2359 90° East  Level FlightAware Approximate
02:07AM 43.1122 -25.0441 90° East  Level FlightAware Approximate
02:08AM 43.1113 -24.8522 90° East  Level FlightAware Approximate
02:09AM 43.1101 -24.6604 90° East  Level FlightAware Approximate
02:10AM 43.1087 -24.4686 91° East  Level FlightAware Approximate
02:11AM 43.1068 -24.2768 91° East  Level FlightAware Approximate
02:12AM 43.1047 -24.0849 91° East  Level FlightAware Approximate
02:13AM 43.1023 -23.8932 91° East  Level FlightAware Approximate
02:14AM 43.0997 -23.7016 91° East  Level FlightAware Approximate
02:15AM 43.0974 -23.5098 91° East  Level FlightAware Approximate
02:16AM 43.0949 -23.3181 91° East  Level FlightAware Approximate
02:17AM 43.0920 -23.1264 91° East  Level FlightAware Approximate
02:18AM 43.0888 -22.9346 91° East  Level FlightAware Approximate
02:19AM 43.0853 -22.7429 91° East  Level FlightAware Approximate
02:20AM 43.0815 -22.5513 92° East  Level FlightAware Approximate
02:21AM 43.0773 -22.3596 92° East  Level FlightAware Approximate
02:22AM 43.0729 -22.1680 92° East  Level FlightAware Approximate
02:23AM 43.0681 -21.9764 92° East  Level FlightAware Approximate
02:24AM 43.0630 -21.7848 92° East  Level FlightAware Approximate
02:25AM 43.0576 -21.5933 92° East  Level FlightAware Approximate
02:26AM 43.0518 -21.4018 92° East  Level FlightAware Approximate
02:27AM 43.0458 -21.2103 92° East  Level FlightAware Approximate
02:28AM 43.0394 -21.0189 93° East  Level FlightAware Approximate
02:29AM 43.0327 -20.8275 93° East  Level FlightAware Approximate
02:30AM 43.0257 -20.6362 93° East  Level FlightAware Approximate
02:31AM 43.0183 -20.4449 93° East  Level FlightAware Approximate
02:32AM 43.0107 -20.2536 93° East  Level FlightAware Approximate
02:33AM 43.0027 -20.0624 93° East  Level FlightAware Approximate
02:34AM 43.0054 -19.8712 87° East  Level FlightAware Approximate
02:35AM 43.0131 -19.6800 87° East  Level FlightAware Approximate
02:36AM 43.0205 -19.4887 87° East  Level FlightAware Approximate
02:37AM 43.0275 -19.2974 87° East  Level FlightAware Approximate
02:38AM 43.0342 -19.1060 87° East  Level FlightAware Approximate
02:39AM 43.0407 -18.9146 87° East  Level FlightAware Approximate
02:40AM 43.0468 -18.7232 87° East  Level FlightAware Approximate
02:41AM 43.0526 -18.5317 88° East  Level FlightAware Approximate
02:42AM 43.0580 -18.3402 88° East  Level FlightAware Approximate
02:43AM 43.0632 -18.1486 88° East  Level FlightAware Approximate
02:44AM 43.0680 -17.9571 88° East  Level FlightAware Approximate
02:45AM 43.0725 -17.7655 88° East  Level FlightAware Approximate
02:46AM 43.0767 -17.5738 88° East  Level FlightAware Approximate
02:47AM 43.0806 -17.3822 88° East  Level FlightAware Approximate
02:48AM 43.0841 -17.1905 88° East  Level FlightAware Approximate
02:49AM 43.0874 -16.9988 89° East  Level FlightAware Approximate
02:50AM 43.0903 -16.8070 89° East  Level FlightAware Approximate
02:51AM 43.0929 -16.6153 89° East  Level FlightAware Approximate
02:52AM 43.0951 -16.4235 89° East  Level FlightAware Approximate
02:53AM 43.0971 -16.2318 89° East  Level FlightAware Approximate
02:54AM 43.0987 -16.0400 89° East  Level FlightAware Approximate
02:55AM 43.1000 -15.8482 89° East  Level FlightAware Approximate
02:56AM 43.1010 -15.6564 90° East  Level FlightAware Approximate
02:57AM 43.1017 -15.4646 90° East  Level FlightAware Approximate
02:58AM 43.1021 -15.2728 90° East  Level FlightAware Approximate
02:59AM 43.1021 -15.0810 90° East  Level FlightAware Approximate
03:00AM 43.1018 -14.8892 90° East  Level FlightAware Approximate
03:01AM 43.1012 -14.6973 90° East  Level FlightAware Approximate
03:02AM 43.1002 -14.5056 90° East  Level FlightAware Approximate
03:03AM 43.0990 -14.3138 90° East  Level FlightAware Approximate
03:04AM 43.0974 -14.1220 91° East  Level FlightAware Approximate
03:05AM 43.0955 -13.9302 91° East  Level FlightAware Approximate
03:06AM 43.0933 -13.7385 91° East  Level FlightAware Approximate
03:07AM 43.0907 -13.5467 91° East  Level FlightAware Approximate
03:08AM 43.0879 -13.3550 91° East  Level FlightAware Approximate
03:09AM 43.0847 -13.1633 91° East  Level FlightAware Approximate
03:10AM 43.0812 -12.9716 91° East  Level FlightAware Approximate
03:11AM 43.0774 -12.7799 91° East  Level FlightAware Approximate
03:12AM 43.0733 -12.5883 92° East  Level FlightAware Approximate
03:13AM 43.0688 -12.3967 92° East  Level FlightAware Approximate
03:14AM 43.0640 -12.2051 92° East  Level FlightAware Approximate
03:15AM 43.0589 -12.0135 92° East  Level FlightAware Approximate
03:16AM 43.0535 -11.8220 92° East  Level FlightAware Approximate
03:17AM 43.0478 -11.6305 92° East  Level FlightAware Approximate
03:18AM 43.0418 -11.4390 92° East  Level FlightAware Approximate
03:19AM 43.0354 -11.2476 93° East  Level FlightAware Approximate
03:20AM 43.0287 -11.0563 93° East  Level FlightAware Approximate
03:21AM 43.0217 -10.8653 93° East  Level FlightAware Approximate
03:21AM 42.9790 -10.2770 93° East 514 592 33,000  Level FlightAware
03:21AM 42.9760 -10.1540 92° East 514 592 33,000 120 Level FlightAware
03:22AM 42.9730 -10.0300 92° East 516 594 33,200 780 Climbing FlightAware
03:22AM 42.9710 -9.9140 91° East 516 594 34,000 720 Climbing FlightAware
03:23AM 42.9680 -9.8130 92° East 514 592 34,000  Level FlightAware
03:24AM 42.9660 -9.7000 91° East 511 588 34,000  Level FlightAware
03:24AM 42.9630 -9.5880 92° East 510 587 34,000  Level FlightAware
03:25AM 42.9600 -9.4590 92° East 509 586 34,000  Level FlightAware
03:25AM 42.9560 -9.3470 93° East 510 587 34,000  Level FlightAware
03:26AM 42.9540 -9.2500 92° East 510 587 34,000  Level FlightAware
03:26AM 42.9500 -9.1380 93° East 510 587 34,000  Level FlightAware
03:27AM 42.9470 -9.0100 92° East 510 587 34,000  Level FlightAware
03:28AM 42.9430 -8.9130 93° East 509 586 34,000  Level FlightAware
03:28AM 42.9390 -8.7850 92° East 509 586 34,000  Level FlightAware
03:29AM 42.9360 -8.6890 92° East 510 587 34,000  Level FlightAware
03:29AM 42.9320 -8.5760 93° East 510 587 34,000  Level FlightAware
03:30AM 42.9270 -8.4480 93° East 511 588 34,000  Level FlightAware
03:31AM 42.9210 -8.3450 95° East 510 587 34,000  Level FlightAware
03:31AM 42.9150 -8.2490 95° East 510 587 34,000  Level FlightAware
03:32AM 42.9080 -8.1270 94° East 510 587 34,000  Level FlightAware
03:32AM 42.9020 -8.0120 94° East 510 587 34,000  Level FlightAware
03:33AM 42.8950 -7.9090 95° East 510 587 34,000  Level FlightAware
03:33AM 42.8870 -7.7910 95° East 510 587 34,000  Level FlightAware
03:34AM 42.8780 -7.6630 95° East 511 588 34,000  Level FlightAware
03:35AM 42.8700 -7.5410 95° East 511 588 34,000  Level FlightAware
03:35AM 42.8620 -7.4290 96° East 511 588 34,000  Level FlightAware
03:36AM 42.8530 -7.3010 95° East 511 588 34,000  Level FlightAware
03:37AM 42.8460 -7.2050 96° East 511 588 34,000  Level FlightAware
03:37AM 42.8380 -7.0930 96° East 511 588 34,000  Level FlightAware
03:38AM 42.8290 -6.9650 95° East 511 588 34,000  Level FlightAware
03:38AM 42.8220 -6.8690 96° East 511 588 34,000  Level FlightAware
03:39AM 42.8130 -6.7570 96° East 512 589 34,000  Level FlightAware
03:40AM 42.8040 -6.6290 95° East 512 589 34,000  Level FlightAware
03:40AM 42.7970 -6.5390 96° East 512 589 34,000  Level FlightAware
03:41AM 42.7850 -6.3950 96° East 513 590 34,000  Level FlightAware
03:41AM 42.7770 -6.2830 96° East 513 590 34,000  Level FlightAware
03:42AM 42.7680 -6.1710 96° East 514 592 34,000  Level FlightAware
03:43AM 42.7580 -6.0550 97° East 514 592 34,000  Level FlightAware
03:43AM 42.7490 -5.9430 96° East 514 592 34,000  Level FlightAware
03:44AM 42.7400 -5.8310 96° East 514 592 34,000  Level FlightAware
03:44AM 42.7300 -5.7210 97° East 515 593 34,000  Level FlightAware
03:45AM 42.7210 -5.6090 96° East 515 593 34,000  Level FlightAware
03:45AM 42.7110 -5.4930 97° East 516 594 34,000  Level FlightAware
03:46AM 42.7010 -5.3810 97° East 515 593 34,000  Level FlightAware
03:47AM 42.6910 -5.2690 97° East 514 592 34,000  Level FlightAware
03:47AM 42.6810 -5.1610 97° East 514 592 34,000  Level FlightAware
03:48AM 42.6690 -5.0260 97° East 511 588 34,000  Level FlightAware
03:48AM 42.6600 -4.9240 97° East 511 588 34,000  Level FlightAware
03:49AM 42.6490 -4.8040 97° East 510 587 34,000  Level FlightAware
03:50AM 42.6380 -4.6920 98° East 510 587 34,000  Level FlightAware
03:50AM 42.6280 -4.5820 97° East 510 587 34,000  Level FlightAware
03:51AM 42.6180 -4.4740 97° East 510 587 34,000  Level FlightAware
03:51AM 42.6070 -4.3600 97° East 509 586 34,000  Level FlightAware
03:52AM 42.5960 -4.2490 98° East 509 586 34,000  Level FlightAware
03:53AM 42.5850 -4.1380 98° East 508 585 34,000  Level FlightAware
03:53AM 42.5750 -4.0310 97° East 508 585 34,000  Level FlightAware
03:54AM 42.5620 -3.9050 98° East 508 585 34,000  Level FlightAware
03:54AM 42.5490 -3.7760 98° East 508 585 34,000  Level FlightAware
03:55AM 42.5390 -3.6810 98° East 508 585 34,000  Level FlightAware
03:56AM 42.5270 -3.5700 98° East 509 586 34,000  Level FlightAware
03:56AM 42.5140 -3.4440 98° East 509 586 34,000  Level FlightAware
03:57AM 42.5030 -3.3370 98° East 509 586 34,000  Level FlightAware
03:57AM 42.4920 -3.2400 99° East 509 586 34,000  Level FlightAware
03:58AM 42.4810 -3.1290 98° East 510 587 34,000  Level FlightAware
03:59AM 42.4670 -3.0090 99° East 511 588 34,000  Level FlightAware
03:59AM 42.4560 -2.9110 99° East 512 589 34,000  Level FlightAware
04:00AM 42.4350 -2.7930 104° East 513 590 34,000  Level FlightAware
04:00AM 42.4140 -2.6910 106° East 513 590 34,000  Level FlightAware
04:01AM 42.3930 -2.5890 106° East 513 590 34,000  Level FlightAware
04:02AM 42.3630 -2.4370 105° East 513 590 34,000  Level FlightAware
04:02AM 42.3360 -2.3140 107° East 515 593 34,000  Level FlightAware
04:03AM 42.3150 -2.2150 106° East 514 592 34,000  Level FlightAware
04:03AM 42.2900 -2.0940 106° East 514 592 34,000  Level FlightAware
04:04AM 42.2650 -1.9780 106° East 513 590 34,000  Level FlightAware
04:05AM 42.2450 -1.8850 106° East 514 592 34,000  Level FlightAware
04:05AM 42.2210 -1.7740 106° East 515 593 34,000  Level FlightAware
04:06AM 42.1970 -1.6670 107° East 515 593 34,000  Level FlightAware
04:06AM 42.1730 -1.5530 106° East 515 593 34,000  Level FlightAware
04:07AM 42.1520 -1.4570 106° East 514 592 34,000  Level FlightAware
04:07AM 42.1280 -1.3440 106° East 513 590 34,000  Level FlightAware
04:08AM 42.1040 -1.2360 107° East 513 590 34,000  Level FlightAware
04:09AM 42.0790 -1.1230 107° East 513 590 34,000  Level FlightAware
04:09AM 42.0570 -1.0260 107° East 512 589 34,000  Level FlightAware
04:10AM 42.0320 -0.9130 107° East 511 588 34,000  Level FlightAware
04:10AM 42.0100 -0.8160 107° East 511 588 34,000  Level FlightAware
04:11AM 41.9840 -0.7000 107° East 512 589 34,000  Level FlightAware
04:11AM 41.9650 -0.6150 107° East 513 590 34,000  Level FlightAware
04:12AM 41.9380 -0.4990 107° East 513 590 34,000  Level FlightAware
04:13AM 41.9120 -0.3860 107° East 514 592 34,000  Level FlightAware
04:13AM 41.8890 -0.2860 107° East 514 592 34,000  Level FlightAware
04:14AM 41.8630 -0.1730 107° East 514 592 34,000  Level FlightAware
04:14AM 41.8400 -0.0750 107° East 515 593 34,000  Level FlightAware
04:15AM 41.8190 0.0190 107° East 515 593 34,000  Level FlightAware
04:16AM 41.7910 0.1370 108° East 514 592 34,000  Level FlightAware
04:16AM 41.7640 0.2500 108° East 514 592 34,000  Level FlightAware
04:17AM 41.7400 0.3530 107° East 514 592 34,000  Level FlightAware
04:17AM 41.7130 0.4650 108° East 514 592 34,000  Level FlightAware
04:17AM 41.7103 0.4771 106° East 514 592 34,000  Level FlightAware ADS-B
04:18AM 41.6900 0.5650 107° East 515 593 34,000  Level FlightAware
04:18AM 41.6829 0.5920 109° East 516 594 34,000  Level FlightAware ADS-B
04:19AM 41.6567 0.7013 108° East 516 594 34,000  Level FlightAware ADS-B
04:19AM 41.6322 0.7949 109° East 518 596 34,000  Level FlightAware ADS-B
04:20AM 41.6012 0.9124 109° East 518 596 34,000  Level FlightAware ADS-B
04:20AM 41.5765 1.0058 109° East 518 596 34,000  Level FlightAware ADS-B
04:21AM 41.5540 1.0930 109° East 517 595 34,000  Level FlightAware
04:21AM 41.5456 1.1231 110° East 517 595 34,000  Level FlightAware ADS-B
04:22AM 41.5225 1.2170 108° East 516 594 34,000  Level FlightAware ADS-B
04:22AM 41.4957 1.3353 107° East 514 592 34,000  Level FlightAware ADS-B
04:23AM 41.4747 1.4293 107° East 514 592 34,000  Level FlightAware ADS-B
04:23AM 41.4473 1.5472 107° East 514 592 34,000  Level FlightAware ADS-B
04:24AM 41.4259 1.6379 107° East 513 590 34,000  Level FlightAware ADS-B
04:24AM 41.4045 1.7284 107° East 515 593 34,000  Level FlightAware ADS-B
04:25AM 41.3736 1.8481 109° East 516 594 34,000  Level FlightAware ADS-B
04:26AM 41.3498 1.9412 109° East 515 593 34,000  Level FlightAware ADS-B
04:26AM 41.3239 2.0428 109° East 514 592 34,000  Level FlightAware ADS-B
04:27AM 41.2990 2.1510 107° East 511 588 34,000  Level FlightAware
04:27AM 41.2810 2.2550 103° East 507 583 34,000  Level FlightAware
04:28AM 41.2650 2.3620 101° East 507 583 34,000  Level FlightAware
04:29AM 41.2450 2.4860 102° East 505 581 34,000  Level FlightAware
04:29AM 41.2260 2.5980 103° East 503 579 34,000  Level FlightAware
04:30AM 41.2070 2.7100 103° East 504 580 34,000  Level FlightAware
04:30AM 41.1910 2.8030 103° East 505 581 34,000  Level FlightAware
04:31AM 41.1740 2.9030 103° East 505 581 34,000  Level FlightAware
04:31AM 41.1550 3.0120 103° East 506 582 34,000  Level FlightAware
04:32AM 41.1410 3.0970 102° East 506 582 34,000  Level FlightAware
04:33AM 41.1210 3.2120 103° East 508 585 34,000  Level FlightAware
04:33AM 41.1000 3.3300 103° East 509 586 34,000  Level FlightAware
04:34AM 41.0810 3.4360 103° East 508 585 34,000  Level FlightAware
04:34AM 41.0650 3.5240 104° East 508 585 34,000  Level FlightAware
04:35AM 41.0480 3.6220 103° East 508 585 34,000  Level FlightAware
04:36AM 41.0320 3.7150 103° East 508 585 34,000  Level FlightAware
04:36AM 41.0160 3.8080 103° East 508 585 34,000  Level FlightAware
04:37AM 41.0000 3.9000 103° East 508 585 34,000  Level FlightAware
04:37AM 40.9830 3.9960 103° East 508 585 34,000  Level FlightAware
04:38AM 40.9670 4.0890 103° East 508 585 34,000  Level FlightAware
04:39AM 40.9510 4.1810 103° East 508 585 34,000  Level FlightAware
04:40AM 40.8860 4.5110 105° East 508 585 34,000  Level FlightAware
04:41AM 40.8640 4.6350 103° East 506 582 34,000  Level FlightAware
04:41AM 40.8480 4.7300 103° East 506 582 34,000  Level FlightAware
04:42AM 40.8310 4.8250 103° East 506 582 34,000  Level FlightAware
04:42AM 40.8150 4.9170 103° East 506 582 34,000  Level FlightAware
04:43AM 40.7980 5.0120 103° East 506 582 34,000  Level FlightAware
04:44AM 40.7820 5.1060 103° East 506 582 34,000  Level FlightAware
04:44AM 40.7660 5.1990 103° East 506 582 34,000  Level FlightAware
04:45AM 40.7500 5.2910 103° East 506 582 34,000  Level FlightAware
04:45AM 40.7330 5.3830 104° East 506 582 34,000  Level FlightAware
04:46AM 40.7170 5.4750 103° East 506 582 34,000 1,620 Level FlightAware
04:47AM 40.9090 5.7580 48° Northeast 36,000 3,120 Climbing FlightAware
04:47AM 40.9100 5.7670 82° East 496 571 36,000  Level FlightAware
04:47AM 40.9260 5.8680 78° East 496 571 36,000  Level FlightAware
04:48AM 40.9430 5.9910 80° East 499 574 36,000  Level FlightAware
04:49AM 40.9290 6.1230 98° East 508 585 36,000  Level FlightAware
04:49AM 40.9250 6.2350 93° East 508 585 36,000  Level FlightAware
04:50AM 40.9210 6.3430 93° East 508 585 36,000  Level FlightAware
04:50AM 40.9030 6.4500 103° East 512 589 36,000  Level FlightAware
04:51AM 40.8830 6.5530 104° East 509 586 36,000  Level FlightAware
04:52AM 40.8630 6.6590 104° East 509 586 36,000  Level FlightAware
04:52AM 40.8440 6.7620 104° East 509 586 36,000  Level FlightAware
04:53AM 40.8240 6.8710 104° East 510 587 36,000  Level FlightAware
04:53AM 40.8040 6.9770 104° East 510 587 36,000  Level FlightAware
04:54AM 40.7840 7.0860 104° East 509 586 36,000  Level FlightAware
04:54AM 40.7650 7.1920 103° East 511 588 36,000  Level FlightAware
04:55AM 40.7460 7.2990 103° East 510 587 36,000  Level FlightAware
04:56AM 40.7280 7.4010 103° East 508 585 36,000  Level FlightAware
04:56AM 40.7140 7.5120 99° East 510 587 36,000  Level FlightAware
04:57AM 40.6990 7.6180 101° East 510 587 36,000  Level FlightAware
04:57AM 40.6800 7.7240 103° East 507 583 36,000  Level FlightAware
04:58AM 40.6620 7.8330 102° East 509 586 36,000  Level FlightAware
04:59AM 40.6440 7.9390 103° East 510 587 36,000  Level FlightAware
04:59AM 40.6270 8.0420 102° East 510 587 36,000  Level FlightAware
05:00AM 40.6140 8.1520 99° East 510 587 36,000  Level FlightAware
05:00AM 40.6000 8.2560 100° East 509 586 36,000  Level FlightAware
05:01AM 40.5850 8.3660 100° East 510 587 36,000  Level FlightAware
05:01AM 40.5690 8.4730 101° East 511 588 36,000  Level FlightAware
05:02AM 40.5510 8.5980 101° East 512 589 36,000  Level FlightAware
05:03AM 40.5360 8.7050 100° East 513 590 36,000  Level FlightAware
05:03AM 40.5200 8.8120 101° East 513 590 36,000 120 Level FlightAware
05:04AM 40.5040 8.9200 101° East 515 593 36,200 660 Climbing FlightAware
05:04AM 40.4880 9.0300 101° East 516 594 36,800 660 Climbing FlightAware
05:05AM 40.4720 9.1380 101° East 519 597 37,000 120 Climbing FlightAware
05:06AM 40.4570 9.2460 100° East 519 597 37,000  Level FlightAware
05:06AM 40.4400 9.3540 102° East 519 597 37,000  Level FlightAware
05:07AM 40.4240 9.4620 101° East 520 598 37,000  Level FlightAware
05:07AM 40.4070 9.5710 102° East 521 600 37,000  Level FlightAware
05:08AM 40.3910 9.6790 101° East 522 601 37,000  Level FlightAware
05:09AM 40.3740 9.7880 102° East 521 600 37,000  Level FlightAware
05:09AM 40.3570 9.8960 102° East 520 598 37,000  Level FlightAware
05:10AM 40.3410 10.0040 101° East 519 597 37,000  Level FlightAware
05:10AM 40.3240 10.1120 102° East 520 598 37,000  Level FlightAware
05:11AM 40.3070 10.2210 102° East 521 600 37,000  Level FlightAware
05:12AM 40.2870 10.3450 102° East 523 602 37,000  Level FlightAware
05:12AM 40.2690 10.4530 102° East 523 602 37,000  Level FlightAware
05:13AM 40.2510 10.5680 102° East 524 603 37,000  Level FlightAware
05:13AM 40.2340 10.6740 102° East 523 602 37,000  Level FlightAware
05:14AM 40.2160 10.7860 102° East 523 602 37,000  Level FlightAware
05:14AM 40.1990 10.8910 102° East 522 601 37,000  Level FlightAware
05:15AM 40.1810 10.9960 103° East 520 598 37,000  Level FlightAware
05:16AM 40.1620 11.1100 102° East 520 598 37,000  Level FlightAware
05:16AM 40.1430 11.2230 102° East 520 598 37,000  Level FlightAware
05:17AM 40.1230 11.3430 102° East 521 600 37,000  Level FlightAware
05:18AM 40.1050 11.4510 102° East 519 597 37,000  Level FlightAware
05:18AM 40.0880 11.5540 102° East 518 596 37,000  Level FlightAware
05:19AM 40.0680 11.6700 103° East 517 595 37,000  Level FlightAware
05:19AM 40.0490 11.7790 103° East 514 592 37,000  Level FlightAware
05:20AM 40.0310 11.8820 103° East 514 592 37,000  Level FlightAware
05:20AM 40.0130 11.9820 103° East 514 592 37,000  Level FlightAware
05:21AM 39.9940 12.0930 103° East 515 593 37,000  Level FlightAware
05:22AM 39.9760 12.1930 103° East 516 594 37,000  Level FlightAware
05:22AM 39.9570 12.3020 103° East 516 594 37,000  Level FlightAware
05:23AM 39.9380 12.4110 103° East 517 595 37,000  Level FlightAware
05:23AM 39.9190 12.5140 103° East 516 594 37,000  Level FlightAware
05:24AM 39.9010 12.6140 103° East 515 593 37,000  Level FlightAware
05:25AM 39.8810 12.7250 103° East 514 592 37,000  Level FlightAware
05:25AM 39.8620 12.8280 103° East 514 592 37,000  Level FlightAware
05:26AM 39.8410 12.9420 103° East 513 590 37,000  Level FlightAware
05:26AM 39.8240 13.0380 103° East 513 590 37,000  Level FlightAware
05:27AM 39.8030 13.1490 104° East 512 589 37,000  Level FlightAware
05:27AM 39.7830 13.2560 104° East 512 589 37,000  Level FlightAware
05:28AM 39.7630 13.3610 104° East 513 590 37,000  Level FlightAware
05:29AM 39.7460 13.4570 103° East 513 590 37,000  Level FlightAware
05:29AM 39.7230 13.5740 104° East 514 592 37,000  Level FlightAware
05:30AM 39.7030 13.6790 104° East 516 594 37,000  Level FlightAware
05:30AM 39.6850 13.7750 104° East 516 594 37,000  Level FlightAware
05:31AM 39.6640 13.8860 104° East 515 593 37,000  Level FlightAware
05:32AM 39.6440 13.9880 104° East 515 593 37,000  Level FlightAware
05:32AM 39.6250 14.0830 105° East 515 593 37,000  Level FlightAware
05:33AM 39.6050 14.1880 104° East 515 593 37,000  Level FlightAware
05:33AM 39.5820 14.3020 105° East 518 596 37,000  Level FlightAware
05:34AM 39.5640 14.3980 104° East 519 597 37,000  Level FlightAware
05:34AM 39.5430 14.5030 105° East 519 597 37,000  Level FlightAware
05:35AM 39.5200 14.6150 105° East 519 597 37,000  Level FlightAware
05:36AM 39.4980 14.7260 104° East 519 597 37,000  Level FlightAware
05:36AM 39.4760 14.8340 105° East 519 597 37,000  Level FlightAware
05:37AM 39.4560 14.9330 105° East 518 596 37,000  Level FlightAware
05:37AM 39.4330 15.0440 105° East 518 596 37,000  Level FlightAware
05:38AM 39.4140 15.1370 105° East 519 597 37,000  Level FlightAware
05:39AM 39.3920 15.2470 104° East 518 596 37,000  Level FlightAware
05:39AM 39.3690 15.3580 105° East 517 595 37,000  Level FlightAware
05:40AM 39.3490 15.4530 105° East 517 595 37,000  Level FlightAware
05:40AM 39.3280 15.5550 105° East 518 596 37,000  Level FlightAware
05:41AM 39.3040 15.6680 105° East 517 595 37,000  Level FlightAware
05:41AM 39.2840 15.7630 105° East 515 593 37,000  Level FlightAware
05:42AM 39.2610 15.8700 105° East 514 592 37,000  Level FlightAware
05:43AM 39.2380 15.9790 105° East 510 587 37,000  Level FlightAware
05:43AM 39.2180 16.0720 105° East 506 582 37,000  Level FlightAware
05:44AM 39.1960 16.1730 106° East 504 580 37,000  Level FlightAware
05:44AM 39.1740 16.2770 105° East 501 577 37,000  Level FlightAware
05:45AM 39.1510 16.3830 106° East 498 573 37,000  Level FlightAware
05:46AM 39.1270 16.4850 107° East 494 568 37,000  Level FlightAware
05:46AM 39.1060 16.5750 107° East 493 567 37,000  Level FlightAware
05:47AM 39.0830 16.6760 106° East 492 566 37,000  Level FlightAware
05:47AM 39.0630 16.7630 106° East 490 564 37,000  Level FlightAware
05:48AM 39.0380 16.8680 107° East 490 564 37,000  Level FlightAware
05:48AM 39.0150 16.9690 106° East 489 563 37,000  Level FlightAware
05:49AM 38.9900 17.0720 107° East 489 563 37,000  Level FlightAware
05:50AM 38.9700 17.1580 107° East 490 564 37,000  Level FlightAware
05:50AM 38.9460 17.2620 106° East 493 567 37,000  Level FlightAware
05:51AM 38.9220 17.3600 107° East 495 570 37,000  Level FlightAware
05:51AM 38.8980 17.4640 106° East 494 568 37,000  Level FlightAware
05:52AM 38.8770 17.5500 107° East 493 567 37,000  Level FlightAware
05:53AM 38.8510 17.6590 107° East 492 566 37,000  Level FlightAware
05:53AM 38.8270 17.7570 107° East 492 566 37,000  Level FlightAware
05:54AM 38.8050 17.8460 108° East 494 568 37,000  Level FlightAware
05:54AM 38.7820 17.9410 107° East 495 570 37,000  Level FlightAware
05:55AM 38.7590 18.0450 106° East 495 570 37,000  Level FlightAware
05:55AM 38.7520 18.1450 95° East 498 573 37,000  Level FlightAware
05:56AM 38.7420 18.2500 97° East 497 572 37,000  Level FlightAware
05:57AM 38.7250 18.3570 101° East 496 571 37,000  Level FlightAware
05:57AM 38.7080 18.4510 103° East 496 571 37,000  Level FlightAware
05:58AM 38.6900 18.5420 104° East 497 572 37,000  Level FlightAware
05:58AM 38.6660 18.6500 106° East 502 578 37,000  Level FlightAware
05:59AM 38.6440 18.7530 105° East 504 580 37,000  Level FlightAware
06:00AM 38.6230 18.8490 106° East 507 583 37,000  Level FlightAware
06:00AM 38.6070 18.9150 107° East 508 585 37,000  Level FlightAware
06:01AM 38.5880 19.0040 105° East 509 586 37,000  Level FlightAware
06:01AM 38.5570 19.1430 106° East 509 586 37,000  Level FlightAware
06:02AM 38.5290 19.2460 109° East 512 589 37,000  Level FlightAware
06:03AM 38.4990 19.3410 112° Southeast 512 589 37,000  Level FlightAware
06:03AM 38.4650 19.4480 112° Southeast 513 590 37,000  Level FlightAware
06:04AM 38.4370 19.5440 110° East 512 589 37,000  Level FlightAware
06:04AM 38.4100 19.6310 112° Southeast 511 588 37,000  Level FlightAware
06:05AM 38.3820 19.7200 112° Southeast 510 587 37,000  Level FlightAware
06:05AM 38.3470 19.8290 112° Southeast 509 586 37,000  Level FlightAware
06:06AM 38.3130 19.9370 112° Southeast 508 585 37,000  Level FlightAware
06:07AM 38.2840 20.0280 112° Southeast 507 583 37,000  Level FlightAware
06:08AM 38.2310 20.1960 112° Southeast 504 580 37,000  Level FlightAware
06:08AM 38.2040 20.2810 112° Southeast 503 579 37,000  Level FlightAware
06:09AM 38.1760 20.3660 113° Southeast 503 579 37,000  Level FlightAware
06:09AM 38.1390 20.4810 112° Southeast 501 577 37,000  Level FlightAware
06:10AM 38.1110 20.5710 112° Southeast 501 577 37,000  Level FlightAware
06:10AM 38.0850 20.6500 113° Southeast 501 577 37,000  Level FlightAware
06:11AM 38.0600 20.7320 111° Southeast 501 577 37,000  Level FlightAware
06:12AM 38.0220 20.8450 113° Southeast 497 572 37,000  Level FlightAware
06:12AM 38.0100 20.8800 114° Southeast 499 574 37,000  Level FlightAware
06:13AM 37.9570 21.0450 112° Southeast 499 574 37,000  Level FlightAware
06:13AM 37.9270 21.1340 113° Southeast 499 574 37,000  Level FlightAware
06:14AM 37.8960 21.2280 113° Southeast 500 575 37,000  Level FlightAware
06:14AM 37.8650 21.3230 112° Southeast 501 577 37,000  Level FlightAware
06:15AM 37.8290 21.4310 113° Southeast 502 578 37,000  Level FlightAware
06:16AM 37.8000 21.5180 113° Southeast 503 579 37,000  Level FlightAware
06:16AM 37.7680 21.6150 113° Southeast 502 578 37,000  Level FlightAware
06:17AM 37.7340 21.7150 113° Southeast 502 578 37,000  Level FlightAware
06:17AM 37.7030 21.8100 112° Southeast 503 579 37,000  Level FlightAware
06:18AM 37.6740 21.8940 114° Southeast 505 581 37,000  Level FlightAware
06:19AM 37.6410 21.9910 113° Southeast 505 581 37,000  Level FlightAware
06:19AM 37.6080 22.0890 113° Southeast 506 582 37,000  Level FlightAware
06:20AM 37.5790 22.1730 114° Southeast 507 583 37,000  Level FlightAware
06:20AM 37.5430 22.2790 113° Southeast 509 586 37,000  Level FlightAware
06:21AM 37.5130 22.3660 113° Southeast 509 586 37,000  Level FlightAware
06:21AM 37.4780 22.4700 113° Southeast 511 588 37,000  Level FlightAware
06:22AM 37.4430 22.5710 114° Southeast 511 588 37,000  Level FlightAware
06:23AM 37.4120 22.6580 114° Southeast 512 589 37,000  Level FlightAware
06:23AM 37.3770 22.7590 114° Southeast 510 587 37,000  Level FlightAware
06:24AM 37.3490 22.8430 113° Southeast 507 583 37,000  Level FlightAware
06:24AM 37.3120 22.9480 114° Southeast 505 581 37,000  Level FlightAware
06:25AM 37.2800 23.0390 114° Southeast 505 581 37,000  Level FlightAware
06:26AM 37.2460 23.1360 114° Southeast 504 580 37,000  Level FlightAware
06:26AM 37.2140 23.2270 114° Southeast 504 580 37,000  Level FlightAware
06:27AM 37.1810 23.3200 114° Southeast 505 581 37,000  Level FlightAware
06:27AM 37.1470 23.4160 114° Southeast 506 582 37,000  Level FlightAware
06:28AM 37.1120 23.5150 114° Southeast 504 580 37,000  Level FlightAware
06:28AM 37.0810 23.6010 114° Southeast 502 578 37,000  Level FlightAware
06:29AM 37.0480 23.6930 114° Southeast 502 578 37,000  Level FlightAware
06:30AM 37.0120 23.7910 115° Southeast 503 579 37,000  Level FlightAware
06:30AM 36.9820 23.8760 114° Southeast 503 579 37,000  Level FlightAware
06:31AM 36.9480 23.9690 115° Southeast 503 579 37,000  Level FlightAware
06:31AM 36.9130 24.0670 114° Southeast 503 579 37,000  Level FlightAware
06:32AM 36.8790 24.1620 114° Southeast 503 579 37,000  Level FlightAware
06:33AM 36.8470 24.2490 115° Southeast 503 579 37,000  Level FlightAware
06:33AM 36.8150 24.3340 115° Southeast 503 579 37,000  Level FlightAware
06:34AM 36.7770 24.4390 114° Southeast 502 578 37,000  Level FlightAware
06:34AM 36.7440 24.5290 115° Southeast 502 578 37,000  Level FlightAware
06:35AM 36.7130 24.6130 115° Southeast 502 578 37,000  Level FlightAware
06:35AM 36.6780 24.7130 114° Southeast 502 578 37,000  Level FlightAware
06:36AM 36.6450 24.8030 115° Southeast 502 578 37,000  Level FlightAware
06:37AM 36.6110 24.8950 115° Southeast 502 578 37,000  Level FlightAware
06:37AM 36.5780 24.9870 114° Southeast 503 579 37,000  Level FlightAware
06:38AM 36.5450 25.0770 115° Southeast 503 579 37,000  Level FlightAware
06:38AM 36.5120 25.1660 115° Southeast 503 579 37,000  Level FlightAware
06:39AM 36.4750 25.2660 115° Southeast 504 580 37,000  Level FlightAware
06:40AM 36.4420 25.3530 115° Southeast 504 580 37,000  Level FlightAware
06:40AM 36.4090 25.4420 115° Southeast 505 581 37,000  Level FlightAware
06:41AM 36.3770 25.5290 115° Southeast 505 581 37,000  Level FlightAware
06:41AM 36.3300 25.6530 115° Southeast 505 581 37,000  Level FlightAware
06:42AM 36.2960 25.7450 115° Southeast 506 582 37,000  Level FlightAware
06:43AM 36.2660 25.8260 115° Southeast 506 582 37,000  Level FlightAware
06:43AM 36.2350 25.9050 116° Southeast 507 583 37,000  Level FlightAware
06:44AM 36.1990 26.0030 114° Southeast 505 581 37,000  Level FlightAware
06:44AM 36.1640 26.0950 115° Southeast 505 581 37,000  Level FlightAware
06:45AM 36.1230 26.2030 115° Southeast 506 582 37,000  Level FlightAware
06:46AM 36.0870 26.2950 116° Southeast 503 579 37,000  Level FlightAware
06:46AM 36.0490 26.4000 114° Southeast 502 578 37,000  Level FlightAware
06:47AM 35.9970 26.5320 116° Southeast 500 575 37,000  Level FlightAware
06:48AM 35.9630 26.6210 115° Southeast 500 575 37,000  Level FlightAware
06:48AM 35.9250 26.7220 115° Southeast 500 575 37,000  Level FlightAware
06:49AM 35.8770 26.8430 116° Southeast 502 578 37,000  Level FlightAware
06:50AM 35.8380 26.9410 116° Southeast 503 579 37,000  Level FlightAware
06:50AM 35.8050 27.0280 115° Southeast 502 578 37,000  Level FlightAware
06:51AM 35.7640 27.1290 117° Southeast 504 580 37,000  Level FlightAware
06:51AM 35.7280 27.2220 115° Southeast 504 580 37,000  Level FlightAware
06:52AM 35.6950 27.3050 116° Southeast 505 581 37,000  Level FlightAware
06:53AM 35.6590 27.3980 115° Southeast 505 581 37,000  Level FlightAware
06:53AM 35.6220 27.4910 116° Southeast 506 582 37,000  Level FlightAware
06:54AM 35.5830 27.5860 117° Southeast 506 582 37,000  Level FlightAware
06:54AM 35.5520 27.6660 115° Southeast 507 583 37,000  Level FlightAware
06:55AM 35.5130 27.7620 117° Southeast 507 583 37,000  Level FlightAware
06:56AM 35.4760 27.8550 116° Southeast 507 583 37,000  Level FlightAware
06:56AM 35.4420 27.9400 116° Southeast 507 583 37,000  Level FlightAware
06:57AM 35.4050 28.0330 116° Southeast 507 583 37,000  Level FlightAware
06:57AM 35.3680 28.1230 117° Southeast 506 582 37,000  Level FlightAware
06:58AM 35.3320 28.2100 117° Southeast 506 582 37,000  Level FlightAware
06:59AM 35.2950 28.3040 116° Southeast 506 582 37,000  Level FlightAware
06:59AM 35.2500 28.4130 117° Southeast 507 583 37,000  Level FlightAware
07:00AM 35.2170 28.4950 116° Southeast 507 583 37,000  Level FlightAware
07:00AM 35.1790 28.5840 118° Southeast 508 585 37,000  Level FlightAware
07:01AM 35.1440 28.6710 116° Southeast 508 585 37,000  Level FlightAware
07:01AM 35.1110 28.7510 117° Southeast 508 585 37,000  Level FlightAware
07:02AM 35.0670 28.8560 117° Southeast 509 586 37,000  Level FlightAware
07:03AM 35.0320 28.9400 117° Southeast 508 585 37,000  Level FlightAware
07:03AM 34.9950 29.0300 117° Southeast 509 586 37,000  Level FlightAware
07:04AM 34.9610 29.1120 117° Southeast 509 586 37,000  Level FlightAware
07:04AM 34.9300 29.1830 118° Southeast 505 581 37,000  Level FlightAware
07:05AM 34.8970 29.2620 117° Southeast 509 586 37,000  Level FlightAware
07:05AM 34.8600 29.3490 117° Southeast 408 470 37,000  Level FlightAware
07:06AM 34.8200 29.4440 117° Southeast 506 582 37,000  Level FlightAware
07:06AM 34.7830 29.5330 117° Southeast 506 582 37,000  Level FlightAware
07:07AM 34.7280 29.6630 117° Southeast 506 582 37,000  Level FlightAware
07:08AM 34.6920 29.7460 118° Southeast 504 580 37,000  Level FlightAware
07:08AM 34.6560 29.8300 118° Southeast 504 580 37,000  Level FlightAware
07:09AM 34.6070 29.9370 119° Southeast 507 583 37,000  Level FlightAware
07:10AM 34.5740 30.0140 117° Southeast 507 583 37,000  Level FlightAware
07:11AM 34.5380 30.0960 118° Southeast 507 583 37,000  Level FlightAware
07:11AM 34.5100 30.1600 118° Southeast 507 583 37,000  Level FlightAware
07:11AM 34.4560 30.2490 126° Southeast 503 579 37,000  Level FlightAware
07:12AM 34.4160 30.3320 120° Southeast 503 579 37,000  Level FlightAware
07:12AM 34.3720 30.4230 120° Southeast 503 579 37,000  Level FlightAware
07:13AM 34.3350 30.5020 120° Southeast 503 579 37,000  Level FlightAware
07:14AM 34.2950 30.5850 120° Southeast 503 579 37,000  Level FlightAware
07:14AM 34.2470 30.6860 120° Southeast 507 583 37,000  Level FlightAware
07:15AM 34.2110 30.7590 121° Southeast 507 583 37,000  Level FlightAware
07:15AM 34.1710 30.8420 120° Southeast 508 585 37,000  Level FlightAware
07:16AM 34.1230 30.9400 121° Southeast 509 586 37,000  Level FlightAware
07:17AM 34.0790 31.0310 120° Southeast 510 587 37,000  Level FlightAware
07:17AM 34.0430 31.1050 120° Southeast 510 587 37,000  Level FlightAware
07:18AM 34.0020 31.1880 121° Southeast 511 588 37,000  Level FlightAware
07:18AM 33.9620 31.2720 120° Southeast 512 589 37,000  Level FlightAware
07:19AM 33.9100 31.3770 121° Southeast 513 590 37,000  Level FlightAware
07:19AM 33.8740 31.4480 121° Southeast 512 589 37,000  Level FlightAware
07:20AM 33.8310 31.5370 120° Southeast 513 590 37,000  Level FlightAware
07:21AM 33.7930 31.6130 121° Southeast 512 589 37,000  Level FlightAware
07:21AM 33.7440 31.7130 120° Southeast 512 589 37,000  Level FlightAware
07:22AM 33.7020 31.7960 121° Southeast 512 589 37,000  Level FlightAware
07:22AM 33.6590 31.8810 121° Southeast 512 589 37,000  Level FlightAware
07:23AM 33.6210 31.9590 120° Southeast 508 585 37,000  Level FlightAware
07:23AM 33.5770 32.0470 121° Southeast 509 586 37,000  Level FlightAware
07:24AM 33.5330 32.1340 121° Southeast 509 586 37,000  Level FlightAware
07:25AM 33.4910 32.2170 121° Southeast 510 587 37,000  Level FlightAware
07:25AM 33.4470 32.3050 121° Southeast 510 587 37,000 -300 Level FlightAware
07:26AM 33.4010 32.3950 121° Southeast 511 588 36,700 -960 Descending FlightAware
07:26AM 33.3580 32.4780 122° Southeast 508 585 35,900 -1,560 Descending FlightAware
07:27AM 33.3200 32.5530 121° Southeast 509 586 34,900 -1,860 Descending FlightAware
07:28AM 33.2770 32.6380 121° Southeast 508 585 33,900 -1,920 Descending FlightAware
07:28AM 33.2290 32.7320 121° Southeast 507 583 32,700 -2,040 Descending FlightAware
07:29AM 33.1850 32.8190 121° Southeast 509 586 31,400 -2,280 Descending FlightAware
07:29AM 33.1480 32.8920 121° Southeast 510 587 30,200 -2,340 Descending FlightAware
07:30AM 33.1010 32.9810 122° Southeast 518 596 28,700 -2,460 Descending FlightAware
07:30AM 33.0660 33.0500 121° Southeast 523 602 27,500 -1,620 Descending FlightAware
07:31AM 32.9950 33.1900 121° Southeast 517 595 26,500 -1,860 Descending FlightAware
07:32AM 32.9410 33.2920 122° Southeast 508 585 24,600 -2,400 Descending FlightAware
07:33AM 32.8970 33.3760 122° Southeast 496 571 23,500 -1,620 Descending FlightAware
07:33AM 32.8560 33.4550 122° Southeast 464 534 22,700 -1,320 Descending FlightAware
07:34AM 32.8160 33.5320 122° Southeast 430 495 22,000 -1,080 Descending FlightAware
07:34AM 32.7840 33.5920 122° Southeast 408 470 21,500 -960 Descending FlightAware
07:35AM 32.7490 33.6600 121° Southeast 378 435 20,900 -960 Descending FlightAware
07:36AM 32.7160 33.7230 122° Southeast 356 410 20,400 -1,260 Descending FlightAware
07:36AM 32.6880 33.7750 123° Southeast 349 402 19,500 -1,680 Descending FlightAware
07:37AM 32.6570 33.8350 122° Southeast 343 395 18,500 -1,620 Descending FlightAware
07:37AM 32.6280 33.8900 122° Southeast 338 389 17,600 -1,740 Descending FlightAware
07:38AM 32.5990 33.9450 122° Southeast 331 381 16,500 -1,920 Descending FlightAware
07:38AM 32.5740 33.9930 122° Southeast 326 375 15,500 -1,920 Descending FlightAware
07:39AM 32.5450 34.0480 122° Southeast 320 368 14,400 -1,920 Descending FlightAware
07:40AM 32.5150 34.1040 122° Southeast 312 359 13,200 -1,860 Descending FlightAware
07:40AM 32.4860 34.1500 127° Southeast 308 354 12,200 -1,740 Descending FlightAware
07:40AM 32.4750 34.1590 145° Southeast 307 353 11,900 -1,680 Descending FlightAware
07:41AM 32.4630 34.1640 161° South 306 352 11,700 -1,560 Descending FlightAware
07:41AM 32.4200 34.1730 170° South 300 345 10,900 -1,500 Descending FlightAware
07:42AM 32.3790 34.1780 174° South 298 343 10,200 -1,380 Descending FlightAware
07:42AM 32.3470 34.1830 172° South 294 338 9,700 -1,200 Descending FlightAware
07:42AM 32.3240 34.1880 170° South 291 335 9,300 -1,440 Descending FlightAware
07:42AM 32.3080 34.1970 155° Southeast 289 333 9,000 -1,620 Descending FlightAware
07:43AM 32.2990 34.2060 140° Southeast 287 330 8,800 -1,200 Descending FlightAware
07:43AM 32.2850 34.2230 134° Southeast 284 327 8,500 -1,320 Descending FlightAware
07:43AM 32.2640 34.2480 135° Southeast 281 323 8,000 -1,200 Descending FlightAware
07:44AM 32.2470 34.2690 134° Southeast 275 316 7,700 -840 Descending FlightAware
07:44AM 32.2320 34.2870 135° Southeast 265 305 7,500 -360 Descending FlightAware
07:44AM 32.2090 34.3140 135° Southeast 262 302 7,400 -840 Descending FlightAware
07:45AM 32.2090 34.3140 135° Southeast 256 295 6,700 -1,740 Descending FlightAware
07:45AM 32.1530 34.3800 135° Southeast 247 284 5,600 -1,140 Descending FlightAware
07:46AM 32.1270 34.4110 135° Southeast 247 284 5,400 -660 Descending FlightAware
07:47AM 32.1250 34.4130 140° Southeast 246 283 4,900 -1,740 Descending FlightAware
07:47AM 32.0890 34.4560 135° Southeast 233 268 4,100 -1,980 Descending FlightAware
07:47AM 32.0720 34.4760 135° Southeast 232 267 3,700 -1,140 Descending FlightAware
07:48AM 32.0570 34.4950 133° Southeast 230 265 3,300 -1,200 Descending FlightAware
07:48AM 32.0450 34.5090 135° Southeast 229 264 3,000 -840 Descending FlightAware
07:48AM 32.0340 34.5230 133° Southeast 232 267 2,900 -300 Descending FlightAware
07:48AM 32.0310 34.5290 121° Southeast 233 268 2,900  Level FlightAware
07:48AM 32.0260 34.5460 109° East 227 261 2,900  Level FlightAware
07:49AM 32.0230 34.5560 109° East 227 261 2,900  Level FlightAware
07:49AM 32.0150 34.5830 109° East 228 262 2,900  Level FlightAware
07:49AM 32.0070 34.6110 109° East 228 262 2,900 -720 Level FlightAware
07:50AM 31.9980 34.6460 107° East 230 265 2,300 -900 Descending FlightAware
07:50AM 31.9910 34.6700 109° East 228 262 2,300  Level FlightAware
07:51AM 31.9840 34.6960 108° East 228 262 2,300 -240 Level FlightAware
07:51AM 31.9910 34.6700 288° West 192 221 2,000 -540 Descending FlightAware
07:52AM 31.9980 34.7620 85° East 163 188 1,700 -900 Descending FlightAware
07:52AM 31.9990 34.7720 83° East 151 174 1,500 -300 Descending FlightAware
07:52AM 32.0020 34.7910 79° East 151 174 1,500 -840 Level FlightAware
07:53AM 32.0060 34.8160 79° East 144 166 800 -1,200 Descending FlightAware
07:53AM 32.0090 34.8370 80° East 148 170 500 -420 Descending FlightAware
07:54AM 32.0130 34.8610 79° East 149 171 400 -240 Descending FlightAware